sensor_id;sensor_type;location;lat;lon;timestamp;P1;durP1;ratioP1;P2;durP2;ratioP2
1206;SDS011;593;53.184;8.216;2023-04-03T00:00:05;1.47;;;1.17;;
1206;SDS011;593;53.184;8.216;2023-04-03T00:02:31;1.23;;;0.55;;
1206;SDS011;593;53.184;8.216;2023-04-03T00:04:57;0.70;;;0.57;;
1206;SDS011;593;53.184;8.216;2023-04-03T00:07:22;1.90;;;1.13;;
1206;SDS011;593;53.184;8.216;2023-04-03T00:09:48;2.80;;;0.70;;
1206;SDS011;593;53.184;8.216;2023-04-03T00:12:13;1.27;;;0.70;;
1206;SDS011;593;53.184;8.216;2023-04-03T00:14:38;1.03;;;0.77;;
1206;SDS011;593;53.184;8.216;2023-04-03T00:17:04;0.90;;;0.80;;
1206;SDS011;593;53.184;8.216;2023-04-03T00:19:29;1.70;;;0.60;;
1206;SDS011;593;53.184;8.216;2023-04-03T00:21:55;0.90;;;0.70;;
1206;SDS011;593;53.184;8.216;2023-04-03T00:24:20;1.80;;;0.80;;
1206;SDS011;593;53.184;8.216;2023-04-03T00:26:46;0.70;;;0.60;;
1206;SDS011;593;53.184;8.216;2023-04-03T00:29:11;2.70;;;0.70;;
1206;SDS011;593;53.184;8.216;2023-04-03T00:31:36;2.80;;;0.70;;
1206;SDS011;593;53.184;8.216;2023-04-03T00:34:01;2.10;;;0.67;;
1206;SDS011;593;53.184;8.216;2023-04-03T00:36:27;5.43;;;0.70;;
1206;SDS011;593;53.184;8.216;2023-04-03T00:38:52;1.57;;;0.73;;
1206;SDS011;593;53.184;8.216;2023-04-03T00:41:17;4.90;;;0.77;;
1206;SDS011;593;53.184;8.216;2023-04-03T00:43:43;3.17;;;0.93;;
1206;SDS011;593;53.184;8.216;2023-04-03T00:46:08;2.23;;;0.60;;
1206;SDS011;593;53.184;8.216;2023-04-03T00:48:35;3.03;;;0.70;;
1206;SDS011;593;53.184;8.216;2023-04-03T00:51:05;1.70;;;0.82;;
1206;SDS011;593;53.184;8.216;2023-04-03T00:53:37;1.05;;;0.93;;
1206;SDS011;593;53.184;8.216;2023-04-03T00:56:07;1.80;;;0.70;;
1206;SDS011;593;53.184;8.216;2023-04-03T00:58:40;1.23;;;0.70;;
1206;SDS011;593;53.184;8.216;2023-04-03T01:01:13;1.10;;;0.68;;
1206;SDS011;593;53.184;8.216;2023-04-03T01:03:40;3.40;;;0.95;;
1206;SDS011;593;53.184;8.216;2023-04-03T01:06:06;2.77;;;0.87;;
1206;SDS011;593;53.184;8.216;2023-04-03T01:08:32;3.33;;;0.60;;
1206;SDS011;593;53.184;8.216;2023-04-03T01:10:58;0.60;;;0.60;;
1206;SDS011;593;53.184;8.216;2023-04-03T01:13:27;4.10;;;0.80;;
1206;SDS011;593;53.184;8.216;2023-04-03T01:15:55;2.55;;;0.95;;
1206;SDS011;593;53.184;8.216;2023-04-03T01:18:21;1.80;;;0.83;;
1206;SDS011;593;53.184;8.216;2023-04-03T01:26:05;1.67;;;0.73;;
1206;SDS011;593;53.184;8.216;2023-04-03T01:28:33;2.10;;;1.00;;
1206;SDS011;593;53.184;8.216;2023-04-03T01:33:38;2.22;;;1.00;;
1206;SDS011;593;53.184;8.216;2023-04-03T01:36:03;1.13;;;0.70;;
1206;SDS011;593;53.184;8.216;2023-04-03T01:38:30;0.60;;;0.60;;
1206;SDS011;593;53.184;8.216;2023-04-03T01:40:55;3.80;;;1.10;;
1206;SDS011;593;53.184;8.216;2023-04-03T01:43:21;4.43;;;1.00;;
1206;SDS011;593;53.184;8.216;2023-04-03T01:45:46;1.57;;;0.77;;
1206;SDS011;593;53.184;8.216;2023-04-03T01:48:14;1.85;;;0.85;;
1206;SDS011;593;53.184;8.216;2023-04-03T01:50:40;1.25;;;0.80;;
1206;SDS011;593;53.184;8.216;2023-04-03T01:53:06;1.00;;;0.80;;
1206;SDS011;593;53.184;8.216;2023-04-03T01:55:31;3.30;;;1.27;;
1206;SDS011;593;53.184;8.216;2023-04-03T01:57:56;2.77;;;0.87;;
1206;SDS011;593;53.184;8.216;2023-04-03T02:00:22;3.13;;;0.90;;
1206;SDS011;593;53.184;8.216;2023-04-03T02:02:47;1.30;;;0.90;;
1206;SDS011;593;53.184;8.216;2023-04-03T02:05:13;1.27;;;0.80;;
1206;SDS011;593;53.184;8.216;2023-04-03T02:07:38;1.20;;;0.80;;
1206;SDS011;593;53.184;8.216;2023-04-03T02:10:03;2.80;;;1.10;;
1206;SDS011;593;53.184;8.216;2023-04-03T02:12:29;1.20;;;0.97;;
1206;SDS011;593;53.184;8.216;2023-04-03T02:14:54;3.07;;;0.80;;
1206;SDS011;593;53.184;8.216;2023-04-03T02:17:20;1.20;;;1.10;;
1206;SDS011;593;53.184;8.216;2023-04-03T02:19:45;2.80;;;0.60;;
1206;SDS011;593;53.184;8.216;2023-04-03T02:22:10;1.10;;;0.80;;
1206;SDS011;593;53.184;8.216;2023-04-03T02:24:36;1.50;;;0.73;;
1206;SDS011;593;53.184;8.216;2023-04-03T02:27:01;0.70;;;0.70;;
1206;SDS011;593;53.184;8.216;2023-04-03T02:29:26;0.80;;;0.70;;
1206;SDS011;593;53.184;8.216;2023-04-03T02:31:52;1.73;;;0.80;;
1206;SDS011;593;53.184;8.216;2023-04-03T02:34:17;2.13;;;0.80;;
1206;SDS011;593;53.184;8.216;2023-04-03T02:36:46;1.10;;;0.70;;
1206;SDS011;593;53.184;8.216;2023-04-03T02:39:11;2.07;;;0.83;;
1206;SDS011;593;53.184;8.216;2023-04-03T02:41:36;4.93;;;1.03;;
1206;SDS011;593;53.184;8.216;2023-04-03T02:44:02;0.93;;;0.80;;
1206;SDS011;593;53.184;8.216;2023-04-03T02:46:29;1.90;;;0.90;;
1206;SDS011;593;53.184;8.216;2023-04-03T02:48:54;1.90;;;0.70;;
1206;SDS011;593;53.184;8.216;2023-04-03T02:51:20;2.80;;;1.20;;
1206;SDS011;593;53.184;8.216;2023-04-03T02:53:45;1.30;;;0.70;;
1206;SDS011;593;53.184;8.216;2023-04-03T02:56:11;1.30;;;0.73;;
1206;SDS011;593;53.184;8.216;2023-04-03T02:58:36;0.83;;;0.50;;
1206;SDS011;593;53.184;8.216;2023-04-03T03:01:02;4.50;;;1.30;;
1206;SDS011;593;53.184;8.216;2023-04-03T03:03:27;1.57;;;0.90;;
1206;SDS011;593;53.184;8.216;2023-04-03T03:06:03;3.90;;;1.23;;
1206;SDS011;593;53.184;8.216;2023-04-03T03:08:29;2.10;;;0.88;;
1206;SDS011;593;53.184;8.216;2023-04-03T03:10:55;1.43;;;0.80;;
1206;SDS011;593;53.184;8.216;2023-04-03T03:13:20;1.20;;;1.10;;
1206;SDS011;593;53.184;8.216;2023-04-03T03:15:46;3.23;;;1.10;;
1206;SDS011;593;53.184;8.216;2023-04-03T03:18:11;1.83;;;0.97;;
1206;SDS011;593;53.184;8.216;2023-04-03T03:20:36;4.73;;;1.37;;
1206;SDS011;593;53.184;8.216;2023-04-03T03:23:02;3.03;;;1.17;;
1206;SDS011;593;53.184;8.216;2023-04-03T03:25:27;1.83;;;1.20;;
1206;SDS011;593;53.184;8.216;2023-04-03T03:27:52;3.10;;;1.00;;
1206;SDS011;593;53.184;8.216;2023-04-03T03:30:18;3.20;;;1.07;;
1206;SDS011;593;53.184;8.216;2023-04-03T03:32:43;1.30;;;1.20;;
1206;SDS011;593;53.184;8.216;2023-04-03T03:35:08;2.70;;;1.47;;
1206;SDS011;593;53.184;8.216;2023-04-03T03:37:34;2.13;;;0.90;;
1206;SDS011;593;53.184;8.216;2023-04-03T03:39:59;1.47;;;1.30;;
1206;SDS011;593;53.184;8.216;2023-04-03T03:42:25;1.13;;;0.80;;
1206;SDS011;593;53.184;8.216;2023-04-03T03:44:50;0.70;;;0.60;;
1206;SDS011;593;53.184;8.216;2023-04-03T03:47:16;6.65;;;1.60;;
1206;SDS011;593;53.184;8.216;2023-04-03T03:49:42;1.83;;;1.20;;
1206;SDS011;593;53.184;8.216;2023-04-03T03:52:07;3.40;;;1.10;;
1206;SDS011;593;53.184;8.216;2023-04-03T03:54:35;1.77;;;0.93;;
1206;SDS011;593;53.184;8.216;2023-04-03T03:57:01;2.43;;;1.00;;
1206;SDS011;593;53.184;8.216;2023-04-03T03:59:26;2.70;;;0.90;;
1206;SDS011;593;53.184;8.216;2023-04-03T04:01:51;6.53;;;1.23;;
1206;SDS011;593;53.184;8.216;2023-04-03T04:04:17;3.03;;;1.30;;
1206;SDS011;593;53.184;8.216;2023-04-03T04:06:42;4.40;;;1.10;;
1206;SDS011;593;53.184;8.216;2023-04-03T04:09:08;2.27;;;1.00;;
1206;SDS011;593;53.184;8.216;2023-04-03T04:11:34;3.40;;;1.20;;
1206;SDS011;593;53.184;8.216;2023-04-03T04:13:59;3.00;;;1.03;;
1206;SDS011;593;53.184;8.216;2023-04-03T04:16:25;4.13;;;1.63;;
1206;SDS011;593;53.184;8.216;2023-04-03T04:18:50;4.20;;;1.77;;
1206;SDS011;593;53.184;8.216;2023-04-03T04:21:15;1.37;;;1.10;;
1206;SDS011;593;53.184;8.216;2023-04-03T04:23:41;1.90;;;0.90;;
1206;SDS011;593;53.184;8.216;2023-04-03T04:26:06;3.23;;;1.40;;
1206;SDS011;593;53.184;8.216;2023-04-03T04:28:31;1.83;;;1.50;;
1206;SDS011;593;53.184;8.216;2023-04-03T04:30:57;2.07;;;1.00;;
1206;SDS011;593;53.184;8.216;2023-04-03T04:33:22;1.20;;;1.00;;
1206;SDS011;593;53.184;8.216;2023-04-03T04:35:47;1.87;;;0.90;;
1206;SDS011;593;53.184;8.216;2023-04-03T04:38:13;3.57;;;1.03;;
1206;SDS011;593;53.184;8.216;2023-04-03T04:40:39;2.70;;;1.13;;
1206;SDS011;593;53.184;8.216;2023-04-03T04:43:05;2.08;;;1.30;;
1206;SDS011;593;53.184;8.216;2023-04-03T04:45:30;0.80;;;0.80;;
1206;SDS011;593;53.184;8.216;2023-04-03T04:47:56;2.77;;;1.90;;
1206;SDS011;593;53.184;8.216;2023-04-03T04:50:21;3.70;;;1.50;;
1206;SDS011;593;53.184;8.216;2023-04-03T04:52:47;2.00;;;1.50;;
1206;SDS011;593;53.184;8.216;2023-04-03T04:55:13;1.63;;;1.27;;
1206;SDS011;593;53.184;8.216;2023-04-03T04:57:38;2.63;;;1.10;;
1206;SDS011;593;53.184;8.216;2023-04-03T05:00:04;2.77;;;1.40;;
1206;SDS011;593;53.184;8.216;2023-04-03T05:02:30;5.65;;;1.45;;
1206;SDS011;593;53.184;8.216;2023-04-03T05:04:55;3.77;;;1.70;;
1206;SDS011;593;53.184;8.216;2023-04-03T05:07:21;3.67;;;1.63;;
1206;SDS011;593;53.184;8.216;2023-04-03T05:09:47;1.10;;;1.00;;
1206;SDS011;593;53.184;8.216;2023-04-03T05:12:12;4.33;;;1.90;;
1206;SDS011;593;53.184;8.216;2023-04-03T05:14:38;3.50;;;1.87;;
1206;SDS011;593;53.184;8.216;2023-04-03T05:17:03;7.47;;;2.17;;
1206;SDS011;593;53.184;8.216;2023-04-03T05:19:28;4.30;;;1.43;;
1206;SDS011;593;53.184;8.216;2023-04-03T05:21:54;1.73;;;1.43;;
1206;SDS011;593;53.184;8.216;2023-04-03T05:24:19;1.67;;;1.23;;
1206;SDS011;593;53.184;8.216;2023-04-03T05:26:45;2.90;;;1.50;;
1206;SDS011;593;53.184;8.216;2023-04-03T05:29:10;3.27;;;1.60;;
1206;SDS011;593;53.184;8.216;2023-04-03T05:31:36;3.20;;;1.30;;
1206;SDS011;593;53.184;8.216;2023-04-03T05:34:01;4.13;;;1.70;;
1206;SDS011;593;53.184;8.216;2023-04-03T05:36:27;2.93;;;2.10;;
1206;SDS011;593;53.184;8.216;2023-04-03T05:38:52;3.00;;;1.90;;
1206;SDS011;593;53.184;8.216;2023-04-03T05:41:18;1.43;;;1.33;;
1206;SDS011;593;53.184;8.216;2023-04-03T05:43:45;6.28;;;1.58;;
1206;SDS011;593;53.184;8.216;2023-04-03T05:46:12;1.83;;;1.73;;
1206;SDS011;593;53.184;8.216;2023-04-03T05:48:39;2.47;;;2.28;;
1206;SDS011;593;53.184;8.216;2023-04-03T05:51:05;3.27;;;1.67;;
1206;SDS011;593;53.184;8.216;2023-04-03T05:53:31;4.75;;;2.30;;
1206;SDS011;593;53.184;8.216;2023-04-03T05:56:00;4.70;;;1.98;;
1206;SDS011;593;53.184;8.216;2023-04-03T05:58:26;4.87;;;1.67;;
1206;SDS011;593;53.184;8.216;2023-04-03T06:00:51;5.23;;;1.80;;
1206;SDS011;593;53.184;8.216;2023-04-03T06:03:17;2.33;;;2.07;;
1206;SDS011;593;53.184;8.216;2023-04-03T06:05:42;1.60;;;1.50;;
1206;SDS011;593;53.184;8.216;2023-04-03T06:08:08;3.80;;;1.83;;
1206;SDS011;593;53.184;8.216;2023-04-03T06:10:34;7.68;;;1.70;;
1206;SDS011;593;53.184;8.216;2023-04-03T06:12:59;5.63;;;1.50;;
1206;SDS011;593;53.184;8.216;2023-04-03T06:15:25;7.23;;;2.53;;
1206;SDS011;593;53.184;8.216;2023-04-03T06:17:50;3.27;;;2.00;;
1206;SDS011;593;53.184;8.216;2023-04-03T06:20:16;3.80;;;1.60;;
1206;SDS011;593;53.184;8.216;2023-04-03T06:22:41;4.33;;;2.70;;
1206;SDS011;593;53.184;8.216;2023-04-03T06:25:07;3.23;;;2.10;;
1206;SDS011;593;53.184;8.216;2023-04-03T06:27:32;5.10;;;1.70;;
1206;SDS011;593;53.184;8.216;2023-04-03T06:29:58;1.87;;;1.40;;
1206;SDS011;593;53.184;8.216;2023-04-03T06:32:23;6.60;;;2.23;;
1206;SDS011;593;53.184;8.216;2023-04-03T06:34:48;3.70;;;1.80;;
1206;SDS011;593;53.184;8.216;2023-04-03T06:37:17;2.47;;;2.27;;
1206;SDS011;593;53.184;8.216;2023-04-03T06:39:45;2.13;;;1.40;;
1206;SDS011;593;53.184;8.216;2023-04-03T06:42:10;4.07;;;1.43;;
1206;SDS011;593;53.184;8.216;2023-04-03T06:44:36;3.47;;;2.17;;
1206;SDS011;593;53.184;8.216;2023-04-03T06:47:02;3.27;;;1.60;;
1206;SDS011;593;53.184;8.216;2023-04-03T06:49:27;6.97;;;1.70;;
1206;SDS011;593;53.184;8.216;2023-04-03T06:51:53;4.00;;;1.95;;
1206;SDS011;593;53.184;8.216;2023-04-03T06:54:19;3.23;;;1.70;;
1206;SDS011;593;53.184;8.216;2023-04-03T06:56:44;1.30;;;1.20;;
1206;SDS011;593;53.184;8.216;2023-04-03T06:59:10;1.90;;;1.70;;
1206;SDS011;593;53.184;8.216;2023-04-03T07:01:38;5.05;;;2.67;;
1206;SDS011;593;53.184;8.216;2023-04-03T07:04:04;4.60;;;1.60;;
1206;SDS011;593;53.184;8.216;2023-04-03T07:06:30;1.88;;;0.93;;
1206;SDS011;593;53.184;8.216;2023-04-03T07:08:57;2.55;;;1.10;;
1206;SDS011;593;53.184;8.216;2023-04-03T07:11:22;4.00;;;1.50;;
1206;SDS011;593;53.184;8.216;2023-04-03T07:13:48;5.47;;;1.53;;
1206;SDS011;593;53.184;8.216;2023-04-03T07:16:13;1.63;;;1.30;;
1206;SDS011;593;53.184;8.216;2023-04-03T07:18:38;1.90;;;1.30;;
1206;SDS011;593;53.184;8.216;2023-04-03T07:21:04;4.00;;;1.57;;
1206;SDS011;593;53.184;8.216;2023-04-03T07:23:29;2.80;;;1.40;;
1206;SDS011;593;53.184;8.216;2023-04-03T07:25:55;2.97;;;1.50;;
1206;SDS011;593;53.184;8.216;2023-04-03T07:28:20;5.40;;;1.33;;
1206;SDS011;593;53.184;8.216;2023-04-03T07:31:10;1.80;;;1.17;;
1206;SDS011;593;53.184;8.216;2023-04-03T07:33:37;2.38;;;1.10;;
1206;SDS011;593;53.184;8.216;2023-04-03T07:36:03;2.67;;;1.23;;
1206;SDS011;593;53.184;8.216;2023-04-03T07:38:29;3.45;;;1.25;;
1206;SDS011;593;53.184;8.216;2023-04-03T07:40:55;3.90;;;1.67;;
1206;SDS011;593;53.184;8.216;2023-04-03T07:43:20;1.47;;;1.07;;
1206;SDS011;593;53.184;8.216;2023-04-03T07:45:47;2.72;;;1.55;;
1206;SDS011;593;53.184;8.216;2023-04-03T07:48:16;5.32;;;1.42;;
1206;SDS011;593;53.184;8.216;2023-04-03T07:50:43;3.58;;;1.60;;
1206;SDS011;593;53.184;8.216;2023-04-03T07:53:08;2.97;;;1.57;;
1206;SDS011;593;53.184;8.216;2023-04-03T07:55:34;2.27;;;1.30;;
1206;SDS011;593;53.184;8.216;2023-04-03T07:58:02;4.28;;;1.33;;
1206;SDS011;593;53.184;8.216;2023-04-03T08:00:28;1.50;;;1.20;;
1206;SDS011;593;53.184;8.216;2023-04-03T08:02:54;2.00;;;1.10;;
1206;SDS011;593;53.184;8.216;2023-04-03T08:05:19;1.10;;;0.80;;
1206;SDS011;593;53.184;8.216;2023-04-03T08:07:46;3.08;;;1.10;;
1206;SDS011;593;53.184;8.216;2023-04-03T08:10:12;2.30;;;1.25;;
1206;SDS011;593;53.184;8.216;2023-04-03T08:12:38;4.85;;;1.08;;
1206;SDS011;593;53.184;8.216;2023-04-03T08:15:04;3.83;;;1.67;;
1206;SDS011;593;53.184;8.216;2023-04-03T08:17:30;8.18;;;1.98;;
1206;SDS011;593;53.184;8.216;2023-04-03T08:19:55;0.80;;;0.77;;
1206;SDS011;593;53.184;8.216;2023-04-03T08:22:21;1.73;;;1.00;;
1206;SDS011;593;53.184;8.216;2023-04-03T08:24:46;0.93;;;0.80;;
1206;SDS011;593;53.184;8.216;2023-04-03T08:27:11;2.93;;;0.90;;
1206;SDS011;593;53.184;8.216;2023-04-03T08:29:37;3.47;;;0.80;;
1206;SDS011;593;53.184;8.216;2023-04-03T08:32:03;3.43;;;1.30;;
1206;SDS011;593;53.184;8.216;2023-04-03T08:34:29;2.33;;;0.98;;
1206;SDS011;593;53.184;8.216;2023-04-03T08:36:55;2.85;;;1.35;;
1206;SDS011;593;53.184;8.216;2023-04-03T08:39:21;1.93;;;1.00;;
1206;SDS011;593;53.184;8.216;2023-04-03T08:41:46;1.13;;;1.03;;
1206;SDS011;593;53.184;8.216;2023-04-03T08:52:12;2.45;;;0.80;;
1206;SDS011;593;53.184;8.216;2023-04-03T08:54:53;1.95;;;0.93;;
1206;SDS011;593;53.184;8.216;2023-04-03T08:57:31;1.10;;;0.90;;
1206;SDS011;593;53.184;8.216;2023-04-03T09:00:01;2.47;;;1.48;;
1206;SDS011;593;53.184;8.216;2023-04-03T09:02:33;5.10;;;1.00;;
1206;SDS011;593;53.184;8.216;2023-04-03T09:05:11;0.80;;;0.60;;
1206;SDS011;593;53.184;8.216;2023-04-03T09:07:41;3.65;;;0.70;;
1206;SDS011;593;53.184;8.216;2023-04-03T09:10:10;1.70;;;0.50;;
1206;SDS011;593;53.184;8.216;2023-04-03T09:12:42;2.25;;;0.57;;
1206;SDS011;593;53.184;8.216;2023-04-03T09:15:19;0.50;;;0.40;;
1206;SDS011;593;53.184;8.216;2023-04-03T09:17:49;2.17;;;0.60;;
1206;SDS011;593;53.184;8.216;2023-04-03T09:23:29;0.70;;;0.50;;
1206;SDS011;593;53.184;8.216;2023-04-03T09:26:01;1.10;;;0.52;;
1206;SDS011;593;53.184;8.216;2023-04-03T09:28:31;1.33;;;0.50;;
1206;SDS011;593;53.184;8.216;2023-04-03T09:31:18;1.02;;;0.60;;
1206;SDS011;593;53.184;8.216;2023-04-03T09:34:22;1.83;;;0.50;;
1206;SDS011;593;53.184;8.216;2023-04-03T09:36:47;0.60;;;0.57;;
1206;SDS011;593;53.184;8.216;2023-04-03T09:39:21;3.72;;;1.10;;
1206;SDS011;593;53.184;8.216;2023-04-03T09:41:55;1.55;;;0.47;;
1206;SDS011;593;53.184;8.216;2023-04-03T09:44:40;1.48;;;0.68;;
1206;SDS011;593;53.184;8.216;2023-04-03T09:47:25;0.70;;;0.50;;
1206;SDS011;593;53.184;8.216;2023-04-03T09:49:50;0.70;;;0.50;;
1206;SDS011;593;53.184;8.216;2023-04-03T09:52:20;2.30;;;0.47;;
1206;SDS011;593;53.184;8.216;2023-04-03T09:54:49;2.45;;;0.80;;
1206;SDS011;593;53.184;8.216;2023-04-03T09:57:15;0.57;;;0.40;;
1206;SDS011;593;53.184;8.216;2023-04-03T09:59:42;2.03;;;0.50;;
1206;SDS011;593;53.184;8.216;2023-04-03T10:04:39;1.60;;;0.50;;
1206;SDS011;593;53.184;8.216;2023-04-03T10:07:25;2.75;;;0.55;;
1206;SDS011;593;53.184;8.216;2023-04-03T10:09:56;0.50;;;0.50;;
1206;SDS011;593;53.184;8.216;2023-04-03T10:12:23;2.05;;;0.60;;
1206;SDS011;593;53.184;8.216;2023-04-03T10:22:34;1.27;;;0.50;;
1206;SDS011;593;53.184;8.216;2023-04-03T10:25:12;0.60;;;0.40;;
1206;SDS011;593;53.184;8.216;2023-04-03T10:44:34;2.08;;;0.50;;
1206;SDS011;593;53.184;8.216;2023-04-03T10:47:24;0.73;;;0.52;;
1206;SDS011;593;53.184;8.216;2023-04-03T10:56:17;0.65;;;0.50;;
1206;SDS011;593;53.184;8.216;2023-04-03T11:01:30;0.73;;;0.47;;
1206;SDS011;593;53.184;8.216;2023-04-03T11:04:00;0.70;;;0.43;;
1206;SDS011;593;53.184;8.216;2023-04-03T11:06:32;1.25;;;0.68;;
1206;SDS011;593;53.184;8.216;2023-04-03T11:09:05;0.75;;;0.50;;
1206;SDS011;593;53.184;8.216;2023-04-03T11:11:41;0.90;;;0.50;;
1206;SDS011;593;53.184;8.216;2023-04-03T11:16:46;1.23;;;0.47;;
1206;SDS011;593;53.184;8.216;2023-04-03T11:25:02;0.80;;;0.50;;
1206;SDS011;593;53.184;8.216;2023-04-03T11:27:38;3.80;;;0.60;;
1206;SDS011;593;53.184;8.216;2023-04-03T11:30:09;0.80;;;0.50;;
1206;SDS011;593;53.184;8.216;2023-04-03T11:32:48;0.63;;;0.50;;
1206;SDS011;593;53.184;8.216;2023-04-03T11:35:18;1.20;;;0.50;;
1206;SDS011;593;53.184;8.216;2023-04-03T11:37:46;0.85;;;0.50;;
1206;SDS011;593;53.184;8.216;2023-04-03T11:42:42;0.93;;;0.50;;
1206;SDS011;593;53.184;8.216;2023-04-03T11:53:10;1.92;;;0.50;;
1206;SDS011;593;53.184;8.216;2023-04-03T11:55:56;2.53;;;0.77;;
1206;SDS011;593;53.184;8.216;2023-04-03T11:58:25;1.52;;;0.63;;
1206;SDS011;593;53.184;8.216;2023-04-03T12:16:05;1.13;;;0.50;;
1206;SDS011;593;53.184;8.216;2023-04-03T12:18:44;1.42;;;0.65;;
1206;SDS011;593;53.184;8.216;2023-04-03T12:21:20;2.25;;;0.50;;
1206;SDS011;593;53.184;8.216;2023-04-03T12:26:40;0.80;;;0.40;;
1206;SDS011;593;53.184;8.216;2023-04-03T12:45:29;1.15;;;0.60;;
1206;SDS011;593;53.184;8.216;2023-04-03T12:48:12;0.60;;;0.60;;
1206;SDS011;593;53.184;8.216;2023-04-03T12:50:41;2.28;;;0.85;;
1206;SDS011;593;53.184;8.216;2023-04-03T12:56:21;0.80;;;0.57;;
1206;SDS011;593;53.184;8.216;2023-04-03T12:58:47;0.50;;;0.40;;
1206;SDS011;593;53.184;8.216;2023-04-03T13:01:15;0.60;;;0.50;;
1206;SDS011;593;53.184;8.216;2023-04-03T13:03:44;2.97;;;0.57;;
1206;SDS011;593;53.184;8.216;2023-04-03T13:06:26;0.98;;;0.50;;
1206;SDS011;593;53.184;8.216;2023-04-03T13:08:56;2.83;;;0.60;;
1206;SDS011;593;53.184;8.216;2023-04-03T13:11:24;0.60;;;0.50;;
1206;SDS011;593;53.184;8.216;2023-04-03T13:14:05;0.88;;;0.65;;
1206;SDS011;593;53.184;8.216;2023-04-03T13:16:39;1.67;;;0.50;;
1206;SDS011;593;53.184;8.216;2023-04-03T13:19:06;0.50;;;0.40;;
1206;SDS011;593;53.184;8.216;2023-04-03T13:21:40;1.40;;;0.50;;
1206;SDS011;593;53.184;8.216;2023-04-03T13:24:06;0.50;;;0.40;;
1206;SDS011;593;53.184;8.216;2023-04-03T13:26:33;0.80;;;0.50;;
1206;SDS011;593;53.184;8.216;2023-04-03T13:29:01;1.57;;;0.70;;
1206;SDS011;593;53.184;8.216;2023-04-03T13:31:30;0.85;;;0.85;;
1206;SDS011;593;53.184;8.216;2023-04-03T13:33:58;0.60;;;0.50;;
1206;SDS011;593;53.184;8.216;2023-04-03T13:36:30;1.13;;;0.63;;
1206;SDS011;593;53.184;8.216;2023-04-03T13:39:18;0.82;;;0.50;;
1206;SDS011;593;53.184;8.216;2023-04-03T13:41:44;1.50;;;0.60;;
1206;SDS011;593;53.184;8.216;2023-04-03T13:44:23;1.10;;;0.57;;
1206;SDS011;593;53.184;8.216;2023-04-03T13:46:53;1.20;;;0.60;;
1206;SDS011;593;53.184;8.216;2023-04-03T13:49:22;1.35;;;0.50;;
1206;SDS011;593;53.184;8.216;2023-04-03T13:51:56;0.95;;;0.50;;
1206;SDS011;593;53.184;8.216;2023-04-03T13:54:23;1.13;;;0.70;;
1206;SDS011;593;53.184;8.216;2023-04-03T13:56:54;0.60;;;0.50;;
1206;SDS011;593;53.184;8.216;2023-04-03T13:59:24;1.58;;;0.70;;
1206;SDS011;593;53.184;8.216;2023-04-03T14:04:32;1.10;;;0.65;;
1206;SDS011;593;53.184;8.216;2023-04-03T14:07:13;1.42;;;0.60;;
1206;SDS011;593;53.184;8.216;2023-04-03T14:09:41;0.80;;;0.60;;
1206;SDS011;593;53.184;8.216;2023-04-03T14:12:14;0.80;;;0.50;;
1206;SDS011;593;53.184;8.216;2023-04-03T14:14:49;0.90;;;0.70;;
1206;SDS011;593;53.184;8.216;2023-04-03T14:17:19;0.70;;;0.70;;
1206;SDS011;593;53.184;8.216;2023-04-03T14:19:46;0.80;;;0.60;;
1206;SDS011;593;53.184;8.216;2023-04-03T14:22:15;1.30;;;0.77;;
1206;SDS011;593;53.184;8.216;2023-04-03T14:24:47;1.00;;;0.50;;
1206;SDS011;593;53.184;8.216;2023-04-03T14:27:18;1.07;;;0.60;;
1206;SDS011;593;53.184;8.216;2023-04-03T14:29:46;1.57;;;0.70;;
1206;SDS011;593;53.184;8.216;2023-04-03T14:32:13;0.90;;;0.60;;
1206;SDS011;593;53.184;8.216;2023-04-03T14:34:45;0.80;;;0.67;;
1206;SDS011;593;53.184;8.216;2023-04-03T14:37:14;1.20;;;0.60;;
1206;SDS011;593;53.184;8.216;2023-04-03T14:39:44;2.20;;;0.60;;
1206;SDS011;593;53.184;8.216;2023-04-03T14:42:14;2.60;;;0.90;;
1206;SDS011;593;53.184;8.216;2023-04-03T14:44:45;1.23;;;0.77;;
1206;SDS011;593;53.184;8.216;2023-04-03T14:47:15;0.77;;;0.70;;
1206;SDS011;593;53.184;8.216;2023-04-03T14:49:43;1.40;;;0.60;;
1206;SDS011;593;53.184;8.216;2023-04-03T14:52:25;3.77;;;0.73;;
1206;SDS011;593;53.184;8.216;2023-04-03T14:54:53;3.83;;;0.80;;
1206;SDS011;593;53.184;8.216;2023-04-03T14:57:19;0.80;;;0.60;;
1206;SDS011;593;53.184;8.216;2023-04-03T14:59:47;2.40;;;1.10;;
1206;SDS011;593;53.184;8.216;2023-04-03T15:02:21;2.80;;;1.17;;
1206;SDS011;593;53.184;8.216;2023-04-03T15:04:51;4.00;;;2.13;;
1206;SDS011;593;53.184;8.216;2023-04-03T15:07:16;3.13;;;1.63;;
1206;SDS011;593;53.184;8.216;2023-04-03T15:09:41;1.27;;;0.83;;
1206;SDS011;593;53.184;8.216;2023-04-03T15:12:08;1.43;;;1.10;;
1206;SDS011;593;53.184;8.216;2023-04-03T15:14:33;1.10;;;0.80;;
1206;SDS011;593;53.184;8.216;2023-04-03T15:16:59;1.67;;;0.70;;
1206;SDS011;593;53.184;8.216;2023-04-03T15:19:24;1.23;;;0.70;;
1206;SDS011;593;53.184;8.216;2023-04-03T15:21:49;1.97;;;0.77;;
1206;SDS011;593;53.184;8.216;2023-04-03T15:24:15;2.10;;;0.70;;
1206;SDS011;593;53.184;8.216;2023-04-03T15:26:41;0.97;;;0.87;;
1206;SDS011;593;53.184;8.216;2023-04-03T15:29:06;3.73;;;1.10;;
1206;SDS011;593;53.184;8.216;2023-04-03T15:31:32;6.17;;;2.77;;
1206;SDS011;593;53.184;8.216;2023-04-03T15:33:57;2.90;;;1.70;;
1206;SDS011;593;53.184;8.216;2023-04-03T15:36:23;1.03;;;0.93;;
1206;SDS011;593;53.184;8.216;2023-04-03T15:38:49;1.13;;;1.00;;
1206;SDS011;593;53.184;8.216;2023-04-03T15:41:14;1.30;;;0.70;;
1206;SDS011;593;53.184;8.216;2023-04-03T15:43:40;1.37;;;0.70;;
1206;SDS011;593;53.184;8.216;2023-04-03T15:46:05;1.70;;;0.70;;
1206;SDS011;593;53.184;8.216;2023-04-03T15:48:31;1.27;;;0.70;;
1206;SDS011;593;53.184;8.216;2023-04-03T15:50:57;2.20;;;0.80;;
1206;SDS011;593;53.184;8.216;2023-04-03T15:53:22;1.67;;;0.70;;
1206;SDS011;593;53.184;8.216;2023-04-03T15:55:48;1.27;;;0.70;;
1206;SDS011;593;53.184;8.216;2023-04-03T15:58:13;1.23;;;0.80;;
1206;SDS011;593;53.184;8.216;2023-04-03T16:00:38;3.27;;;0.70;;
1206;SDS011;593;53.184;8.216;2023-04-03T16:03:05;0.80;;;0.60;;
1206;SDS011;593;53.184;8.216;2023-04-03T16:05:35;1.57;;;0.93;;
1206;SDS011;593;53.184;8.216;2023-04-03T16:08:02;1.07;;;0.60;;
1206;SDS011;593;53.184;8.216;2023-04-03T16:10:28;3.67;;;0.70;;
1206;SDS011;593;53.184;8.216;2023-04-03T16:12:53;3.23;;;0.90;;
1206;SDS011;593;53.184;8.216;2023-04-03T16:15:19;1.43;;;1.00;;
1206;SDS011;593;53.184;8.216;2023-04-03T16:17:44;2.77;;;0.90;;
1206;SDS011;593;53.184;8.216;2023-04-03T16:20:10;1.30;;;0.80;;
1206;SDS011;593;53.184;8.216;2023-04-03T16:22:37;1.70;;;0.87;;
1206;SDS011;593;53.184;8.216;2023-04-03T16:25:04;2.00;;;1.00;;
1206;SDS011;593;53.184;8.216;2023-04-03T16:27:31;2.60;;;0.90;;
1206;SDS011;593;53.184;8.216;2023-04-03T16:29:57;1.37;;;0.80;;
1206;SDS011;593;53.184;8.216;2023-04-03T16:32:23;1.40;;;0.93;;
1206;SDS011;593;53.184;8.216;2023-04-03T16:34:51;1.50;;;0.90;;
1206;SDS011;593;53.184;8.216;2023-04-03T16:37:17;1.10;;;1.10;;
1206;SDS011;593;53.184;8.216;2023-04-03T16:39:43;3.53;;;1.00;;
1206;SDS011;593;53.184;8.216;2023-04-03T16:42:08;1.20;;;1.00;;
1206;SDS011;593;53.184;8.216;2023-04-03T16:44:34;1.03;;;0.90;;
1206;SDS011;593;53.184;8.216;2023-04-03T16:47:00;1.70;;;1.30;;
1206;SDS011;593;53.184;8.216;2023-04-03T16:49:26;2.70;;;0.97;;
1206;SDS011;593;53.184;8.216;2023-04-03T16:51:56;3.20;;;1.43;;
1206;SDS011;593;53.184;8.216;2023-04-03T16:54:22;1.20;;;1.07;;
1206;SDS011;593;53.184;8.216;2023-04-03T16:56:47;1.80;;;1.20;;
1206;SDS011;593;53.184;8.216;2023-04-03T16:59:13;1.40;;;1.20;;
1206;SDS011;593;53.184;8.216;2023-04-03T17:01:38;4.27;;;1.43;;
1206;SDS011;593;53.184;8.216;2023-04-03T17:04:04;1.20;;;1.10;;
1206;SDS011;593;53.184;8.216;2023-04-03T17:06:30;3.63;;;1.27;;
1206;SDS011;593;53.184;8.216;2023-04-03T17:08:56;1.40;;;1.30;;
1206;SDS011;593;53.184;8.216;2023-04-03T17:11:21;1.47;;;1.37;;
1206;SDS011;593;53.184;8.216;2023-04-03T17:13:47;3.80;;;2.00;;
1206;SDS011;593;53.184;8.216;2023-04-03T17:16:13;1.27;;;0.90;;
1206;SDS011;593;53.184;8.216;2023-04-03T17:18:40;2.23;;;1.47;;
1206;SDS011;593;53.184;8.216;2023-04-03T17:21:06;4.77;;;2.97;;
1206;SDS011;593;53.184;8.216;2023-04-03T17:23:32;4.93;;;1.50;;
1206;SDS011;593;53.184;8.216;2023-04-03T17:26:00;1.53;;;1.30;;